Aviation Digital Data Service (ADDS)

Output produced by TAFs form (0839 UTC 19 December 2014)
found at http://aviationweather.gov/adds/tafs/
 
KSAF 190535Z 1906/2006 36005KT P6SM FEW050 SCT110 
     FM191000 36005KT P6SM VCFG FEW005 SCT100 
     FM191600 34008KT P6SM FEW150 
     FM192100 30010KT P6SM SCT150